Decoded Metar for WBGG (KUCHING in MALAYSIA) (IATA:KCH) | Meteo·Mobile Aviation Weather
aviador You're here:

WBGG Decoded Metar

KUCHING in MALAYSIA
Report Time2019-07-22 16:30:00
UTC Time2019-07-22 16:42:43
Flight Rules vfr VFR
Wind240° at 03 kt
W.Decomp.*RWY 25: 3.0 kt HW 0.5 kt LCW
Visibility9999 m
Phenomena:N/A
Clouds:Few 020 Hf
Broken 300 Hf
Expected CloudBase > 400 ft AGL from Temp-Dew spread
Ceiling30,000 ft
Temp24°C (ISA +9)
Dew Point23°C (94% RH)
QNH1011 hPa
Density Alt1,591 ft
Elevation89 ft
Report Wrong Elevation
Raw Report
METAR WBGG 221630Z 24003KT 200V270 9999 FEW020 BKN300 24/23 Q1011
NOSIG=

Extra information for WBGG:More info

Metar Taf Metar & Taf Last 4 Metars F.Rules Stats Wind Profile Meteogram Temp Stats Airport Information Weather charts Add Link Nearby VenuesMetar ALERT Operation Metar Decoded Social comments